Time,TemperatureF,DewpointF,PressureIn,WindDirection,WindDirectionDegrees,WindSpeedMPH,WindSpeedGustMPH,Humidity,HourlyPrecipIn,Conditions,Clouds,dailyrainin,SolarRadiationWatts/m^2,SoftwareType,DateUTC
2013-07-29 00:00:00,58.1,52.0,29.85,SW,232,1.0,1.0,80,0.00,,,0.00,0,Wunderground v.1.15,2013-07-29 07:00:00,
2013-07-29 00:10:00,57.8,51.7,29.85,NE,34,0.0,0.0,80,0.00,,,0.00,0,Wunderground v.1.15,2013-07-29 07:10:00,
2013-07-29 00:20:00,57.7,51.9,29.86,NE,36,0.0,0.0,81,0.00,,,0.00,0,Wunderground v.1.15,2013-07-29 07:20:00,
2013-07-29 00:30:00,57.6,52.1,29.86,North,5,1.0,1.0,82,0.00,,,0.00,0,Wunderground v.1.15,2013-07-29 07:30:00,
2013-07-29 00:40:00,57.5,52.0,29.86,NNE,30,1.0,1.0,82,0.00,,,0.00,0,Wunderground v.1.15,2013-07-29 07:40:00,
2013-07-29 00:50:00,57.4,52.3,29.86,East,94,0.0,3.0,83,0.00,,,0.00,0,Wunderground v.1.15,2013-07-29 07:50:00,
2013-07-29 01:00:00,57.3,52.2,29.86,NE,39,1.0,1.0,83,0.00,,,0.00,0,Wunderground v.1.15,2013-07-29 08:00:00,
2013-07-29 01:10:00,57.3,52.2,29.86,North,360,1.0,1.0,83,0.00,,,0.00,0,Wunderground v.1.15,2013-07-29 08:10:00,
2013-07-29 01:20:00,57.3,52.5,29.86,North,360,1.0,1.0,84,0.00,,,0.00,0,Wunderground v.1.15,2013-07-29 08:20:00,
2013-07-29 01:30:00,57.2,52.4,29.86,NE,34,1.0,1.0,84,0.00,,,0.00,0,Wunderground v.1.15,2013-07-29 08:30:00,
2013-07-29 01:40:00,57.2,52.4,29.86,NNE,29,1.0,1.0,84,0.00,,,0.00,0,Wunderground v.1.15,2013-07-29 08:40:00,
2013-07-29 01:50:00,57.2,52.7,29.86,ENE,57,1.0,5.0,85,0.00,,,0.00,0,Wunderground v.1.15,2013-07-29 08:50:00,
2013-07-29 02:00:00,57.1,52.6,29.86,North,5,1.0,1.0,85,0.00,,,0.00,0,Wunderground v.1.15,2013-07-29 09:00:00,
2013-07-29 02:10:00,57.1,52.6,29.86,North,10,0.0,0.0,85,0.00,,,0.00,0,Wunderground v.1.15,2013-07-29 09:10:00,
2013-07-29 02:20:00,57.2,52.7,29.86,NNE,15,1.0,1.0,85,0.00,,,0.00,0,Wunderground v.1.15,2013-07-29 09:20:00,
2013-07-29 02:30:00,57.2,52.7,29.86,North,5,0.0,0.0,85,0.00,,,0.00,0,Wunderground v.1.15,2013-07-29 09:30:00,
2013-07-29 02:40:00,57.2,52.7,29.87,NNW,333,1.0,1.0,85,0.00,,,0.00,0,Wunderground v.1.15,2013-07-29 09:40:00,
2013-07-29 02:50:00,57.3,52.8,29.86,NW,308,0.0,0.0,85,0.00,,,0.00,0,Wunderground v.1.15,2013-07-29 09:50:00,
2013-07-29 03:00:00,57.3,52.8,29.87,NW,323,1.0,2.0,85,0.00,,,0.00,0,Wunderground v.1.15,2013-07-29 10:00:00,
2013-07-29 03:20:00,57.4,52.9,29.87,NE,44,1.0,1.0,85,0.00,,,0.00,0,Wunderground v.1.15,2013-07-29 10:20:00,
2013-07-29 03:30:00,57.3,52.8,29.87,ENE,71,0.0,0.0,85,0.00,,,0.00,0,Wunderground v.1.15,2013-07-29 10:30:00,
2013-07-29 03:40:00,57.3,52.8,29.87,WNW,299,0.0,0.0,85,0.00,,,0.00,0,Wunderground v.1.15,2013-07-29 10:40:00,
2013-07-29 03:50:00,57.2,52.7,29.87,ENE,63,0.0,0.0,85,0.00,,,0.00,0,Wunderground v.1.15,2013-07-29 10:50:00,
2013-07-29 04:10:00,57.1,52.6,29.87,ESE,121,0.0,0.0,85,0.00,,,0.00,0,Wunderground v.1.15,2013-07-29 11:10:00,
2013-07-29 04:20:00,57.0,52.5,29.87,NNE,16,0.0,0.0,85,0.00,,,0.00,0,Wunderground v.1.15,2013-07-29 11:20:00,
2013-07-29 04:30:00,56.9,52.1,29.87,NNE,17,0.0,0.0,84,0.00,,,0.00,0,Wunderground v.1.15,2013-07-29 11:30:00,
2013-07-29 04:50:00,56.8,52.3,29.87,NE,40,0.0,1.0,85,0.00,,,0.00,0,Wunderground v.1.15,2013-07-29 11:50:00,
2013-07-29 05:00:00,56.8,52.3,29.87,NE,50,0.0,0.0,85,0.00,,,0.00,0,Wunderground v.1.15,2013-07-29 12:00:00,
2013-07-29 05:10:00,56.8,52.3,29.87,SSW,210,0.0,0.0,85,0.00,,,0.00,0,Wunderground v.1.15,2013-07-29 12:10:00,
2013-07-29 05:20:00,56.8,52.3,29.88,SSW,209,0.0,0.0,85,0.00,,,0.00,0,Wunderground v.1.15,2013-07-29 12:20:00,
2013-07-29 05:30:00,56.7,52.2,29.88,SW,219,0.0,0.0,85,0.00,,,0.00,0,Wunderground v.1.15,2013-07-29 12:30:00,
2013-07-29 05:40:00,56.6,52.1,29.89,North,355,0.0,0.0,85,0.00,,,0.00,0,Wunderground v.1.15,2013-07-29 12:40:00,
2013-07-29 06:10:00,56.5,52.0,29.89,NE,45,1.0,1.0,85,0.00,,,0.00,0,Wunderground v.1.15,2013-07-29 13:10:00,
2013-07-29 06:20:00,56.4,51.9,29.90,WNW,282,0.0,0.0,85,0.00,,,0.00,5,Wunderground v.1.15,2013-07-29 13:20:00,
2013-07-29 06:30:00,56.3,51.8,29.90,SE,139,1.0,1.0,85,0.00,,,0.00,18,Wunderground v.1.15,2013-07-29 13:30:00,
2013-07-29 06:40:00,56.5,52.0,29.91,East,94,0.0,0.0,85,0.00,,,0.00,40,Wunderground v.1.15,2013-07-29 13:40:00,
2013-07-29 07:00:00,58.2,53.4,29.91,South,182,1.0,1.0,84,0.00,,,0.00,105,Wunderground v.1.15,2013-07-29 14:00:00,
2013-07-29 07:30:00,59.8,52.9,29.92,West,272,0.0,0.0,78,0.00,,,0.00,123,Wunderground v.1.15,2013-07-29 14:30:00,
2013-07-29 07:50:00,60.7,53.4,29.93,SSE,148,1.0,1.0,77,0.00,,,0.00,171,Wunderground v.1.15,2013-07-29 14:50:00,
2013-07-29 08:00:00,61.2,53.9,29.94,North,355,1.0,1.0,77,0.00,,,0.00,167,Wunderground v.1.15,2013-07-29 15:00:00,
2013-07-29 08:10:00,61.6,54.0,29.94,North,360,1.0,2.0,76,0.00,,,0.00,156,Wunderground v.1.15,2013-07-29 15:10:00,
2013-07-29 08:20:00,61.5,53.9,29.94,North,5,1.0,1.0,76,0.00,,,0.00,142,Wunderground v.1.15,2013-07-29 15:20:00,
2013-07-29 08:30:00,61.9,54.2,29.95,North,11,0.0,0.0,76,0.00,,,0.00,197,Wunderground v.1.15,2013-07-29 15:30:00,
2013-07-29 08:50:00,64.6,54.6,29.95,NE,40,1.0,1.0,70,0.00,,,0.00,568,Wunderground v.1.15,2013-07-29 15:50:00,
2013-07-29 09:00:00,65.4,55.4,29.95,NW,307,0.0,3.0,70,0.00,,,0.00,538,Wunderground v.1.15,2013-07-29 16:00:00,
2013-07-29 09:10:00,66.2,54.9,29.95,East,81,2.0,2.0,67,0.00,,,0.00,522,Wunderground v.1.15,2013-07-29 16:10:00,
2013-07-29 09:30:00,66.2,55.3,29.96,WSW,240,1.0,1.0,68,0.00,,,0.00,578,Wunderground v.1.15,2013-07-29 16:30:00,
2013-07-29 09:40:00,66.1,54.8,29.96,WSW,250,1.0,3.0,67,0.00,,,0.00,624,Wunderground v.1.15,2013-07-29 16:40:00,
2013-07-29 09:50:00,66.7,54.6,29.95,WNW,284,2.0,2.0,65,0.00,,,0.00,668,Wunderground v.1.15,2013-07-29 16:50:00,
2013-07-29 10:00:00,66.5,54.4,29.96,WNW,292,1.0,1.0,65,0.00,,,0.00,679,Wunderground v.1.15,2013-07-29 17:00:00,
2013-07-29 10:20:00,68.5,54.5,29.96,West,260,1.0,1.0,61,0.00,,,0.00,693,Wunderground v.1.15,2013-07-29 17:20:00,
2013-07-29 10:30:00,69.1,54.6,29.96,WNW,286,1.0,1.0,60,0.00,,,0.00,722,Wunderground v.1.15,2013-07-29 17:30:00,
2013-07-29 10:50:00,70.3,54.8,29.97,NNW,333,2.0,2.0,58,0.00,,,0.00,768,Wunderground v.1.15,2013-07-29 17:50:00,
2013-07-29 11:00:00,71.5,55.5,29.97,NE,43,2.0,2.0,57,0.00,,,0.00,786,Wunderground v.1.15,2013-07-29 18:00:00,
2013-07-29 11:10:00,71.8,55.7,29.97,NE,36,2.0,3.0,57,0.00,,,0.00,810,Wunderground v.1.15,2013-07-29 18:10:00,
2013-07-29 11:20:00,72.8,55.2,29.97,NNW,340,1.0,1.0,54,0.00,,,0.00,840,Wunderground v.1.15,2013-07-29 18:20:00,
2013-07-29 11:30:00,73.1,54.9,29.97,NE,46,1.0,1.0,53,0.00,,,0.00,856,Wunderground v.1.15,2013-07-29 18:30:00,
2013-07-29 11:40:00,73.8,56.1,29.97,North,5,1.0,1.0,54,0.00,,,0.00,863,Wunderground v.1.15,2013-07-29 18:40:00,
2013-07-29 11:50:00,73.5,54.8,29.97,East,82,1.0,1.0,52,0.00,,,0.00,870,Wunderground v.1.15,2013-07-29 18:50:00,
2013-07-29 12:00:00,73.6,54.4,29.97,NNE,22,2.0,2.0,51,0.00,,,0.00,884,Wunderground v.1.15,2013-07-29 19:00:00,
2013-07-29 12:30:00,75.1,54.6,29.97,WSW,249,1.0,1.0,49,0.00,,,0.00,919,Wunderground v.1.15,2013-07-29 19:30:00,
2013-07-29 12:40:00,76.7,54.4,29.97,NNW,346,1.0,2.0,46,0.00,,,0.00,923,Wunderground v.1.15,2013-07-29 19:40:00,
2013-07-29 12:50:00,75.3,54.3,29.97,NW,321,1.0,1.0,48,0.00,,,0.00,925,Wunderground v.1.15,2013-07-29 19:50:00,
2013-07-29 13:00:00,77.1,54.7,29.97,West,263,0.0,4.0,46,0.00,,,0.00,923,Wunderground v.1.15,2013-07-29 20:00:00,
2013-07-29 13:10:00,77.1,54.1,29.96,West,265,1.0,2.0,45,0.00,,,0.00,925,Wunderground v.1.15,2013-07-29 20:10:00,
2013-07-29 13:20:00,78.1,56.2,29.97,ENE,67,1.0,1.0,47,0.00,,,0.00,909,Wunderground v.1.15,2013-07-29 20:20:00,
2013-07-29 13:50:00,76.0,55.5,29.96,West,263,1.0,3.0,49,0.00,,,0.00,861,Wunderground v.1.15,2013-07-29 20:50:00,
2013-07-29 14:00:00,74.3,55.5,29.96,West,277,2.0,2.0,52,0.00,,,0.00,860,Wunderground v.1.15,2013-07-29 21:00:00,
2013-07-29 14:10:00,72.8,55.2,29.97,WSW,254,1.0,3.0,54,0.00,,,0.00,846,Wunderground v.1.15,2013-07-29 21:10:00,
2013-07-29 14:20:00,74.0,55.8,29.96,West,274,2.0,3.0,53,0.00,,,0.00,838,Wunderground v.1.15,2013-07-29 21:20:00,
2013-07-29 14:30:00,74.2,56.0,29.96,WNW,286,1.0,1.0,53,0.00,,,0.00,823,Wunderground v.1.15,2013-07-29 21:30:00,
2013-07-29 14:40:00,74.3,55.5,29.96,West,265,1.0,1.0,52,0.00,,,0.00,772,Wunderground v.1.15,2013-07-29 21:40:00,
2013-07-29 14:50:00,75.2,56.4,29.96,SSW,192,1.0,1.0,52,0.00,,,0.00,740,Wunderground v.1.15,2013-07-29 21:50:00,
2013-07-29 15:00:00,74.9,56.1,29.96,WNW,291,1.0,1.0,52,0.00,,,0.00,485,Wunderground v.1.15,2013-07-29 22:00:00,
2013-07-29 15:10:00,74.6,56.3,29.96,WNW,289,1.0,1.0,53,0.00,,,0.00,473,Wunderground v.1.15,2013-07-29 22:10:00,
2013-07-29 15:30:00,73.5,56.3,29.96,WNW,284,1.0,2.0,55,0.00,,,0.00,404,Wunderground v.1.15,2013-07-29 22:30:00,
2013-07-29 15:40:00,73.7,56.5,29.96,West,269,1.0,5.0,55,0.00,,,0.00,475,Wunderground v.1.15,2013-07-29 22:40:00,
2013-07-29 15:50:00,73.3,56.7,29.96,West,259,2.0,2.0,56,0.00,,,0.00,694,Wunderground v.1.15,2013-07-29 22:50:00,
2013-07-29 16:00:00,73.1,56.5,29.96,West,275,1.0,1.0,56,0.00,,,0.00,675,Wunderground v.1.15,2013-07-29 23:00:00,
2013-07-29 16:30:00,72.8,55.7,29.96,West,259,1.0,4.0,55,0.00,,,0.00,612,Wunderground v.1.15,2013-07-29 23:30:00,
2013-07-29 16:50:00,71.9,55.3,29.96,West,268,1.0,1.0,56,0.00,,,0.00,561,Wunderground v.1.15,2013-07-29 23:50:00,
2013-07-29 17:00:00,71.1,55.6,29.96,West,279,1.0,1.0,58,0.00,,,0.00,519,Wunderground v.1.15,2013-07-30 00:00:00,
2013-07-29 17:10:00,69.7,54.7,29.96,West,268,1.0,1.0,59,0.00,,,0.00,485,Wunderground v.1.15,2013-07-30 00:10:00,
2013-07-29 17:20:00,70.2,55.7,29.96,WSW,258,1.0,1.0,60,0.00,,,0.00,459,Wunderground v.1.15,2013-07-30 00:20:00,
2013-07-29 17:30:00,70.1,55.1,29.96,West,277,1.0,1.0,59,0.00,,,0.00,95,Wunderground v.1.15,2013-07-30 00:30:00,
2013-07-29 17:40:00,69.5,54.5,29.96,WSW,249,1.0,1.0,59,0.00,,,0.00,111,Wunderground v.1.15,2013-07-30 00:40:00,
2013-07-29 17:50:00,68.8,54.3,29.97,West,275,1.0,1.0,60,0.00,,,0.00,130,Wunderground v.1.15,2013-07-30 00:50:00,
2013-07-29 18:00:00,68.2,54.2,29.97,WSW,251,0.0,4.0,61,0.00,,,0.00,81,Wunderground v.1.15,2013-07-30 01:00:00,
2013-07-29 18:10:00,67.7,54.2,29.97,WNW,302,1.0,3.0,62,0.00,,,0.00,70,Wunderground v.1.15,2013-07-30 01:10:00,
2013-07-29 18:30:00,66.6,54.0,29.97,WSW,241,0.0,0.0,64,0.00,,,0.00,60,Wunderground v.1.15,2013-07-30 01:30:00,
2013-07-29 18:40:00,66.1,54.0,29.96,West,263,0.0,0.0,65,0.00,,,0.00,54,Wunderground v.1.15,2013-07-30 01:40:00,
2013-07-29 19:00:00,65.4,53.7,29.97,West,263,1.0,1.0,66,0.00,,,0.00,47,Wunderground v.1.15,2013-07-30 02:00:00,
2013-07-29 19:10:00,65.0,53.4,29.97,NNE,22,0.0,0.0,66,0.00,,,0.00,42,Wunderground v.1.15,2013-07-30 02:10:00,
2013-07-29 19:30:00,64.4,52.8,29.97,WSW,257,0.0,0.0,66,0.00,,,0.00,35,Wunderground v.1.15,2013-07-30 02:30:00,
2013-07-29 19:40:00,64.0,52.8,29.97,WSW,257,0.0,0.0,67,0.00,,,0.00,25,Wunderground v.1.15,2013-07-30 02:40:00,
2013-07-29 20:20:00,62.5,52.2,29.98,NNE,27,0.0,0.0,69,0.00,,,0.00,0,Wunderground v.1.15,2013-07-30 03:20:00,
2013-07-29 20:40:00,61.7,52.2,29.98,NNE,17,0.0,0.0,71,0.00,,,0.00,0,Wunderground v.1.15,2013-07-30 03:40:00,
2013-07-29 20:50:00,61.3,52.2,29.98,East,90,0.0,0.0,72,0.00,,,0.00,0,Wunderground v.1.15,2013-07-30 03:50:00,
2013-07-29 21:00:00,61.1,52.0,29.99,ENE,62,1.0,1.0,72,0.00,,,0.00,0,Wunderground v.1.15,2013-07-30 04:00:00,
2013-07-29 21:10:00,61.0,52.3,30.00,ENE,63,0.0,3.0,73,0.00,,,0.00,0,Wunderground v.1.15,2013-07-30 04:10:00,
2013-07-29 21:20:00,60.8,52.1,30.00,NW,310,0.0,0.0,73,0.00,,,0.00,0,Wunderground v.1.15,2013-07-30 04:20:00,
2013-07-29 21:30:00,60.5,52.2,30.00,SSE,155,0.0,0.0,74,0.00,,,0.00,0,Wunderground v.1.15,2013-07-30 04:30:00,
2013-07-29 21:40:00,60.4,52.1,30.01,ENE,72,0.0,0.0,74,0.00,,,0.00,0,Wunderground v.1.15,2013-07-30 04:40:00,
2013-07-29 21:50:00,60.1,52.1,30.01,WNW,289,1.0,1.0,75,0.00,,,0.00,0,Wunderground v.1.15,2013-07-30 04:50:00,
2013-07-29 22:00:00,60.0,52.1,30.01,North,360,0.0,0.0,75,0.00,,,0.00,0,Wunderground v.1.15,2013-07-30 05:00:00,
2013-07-29 22:10:00,59.8,51.9,30.02,NNW,330,0.0,0.0,75,0.00,,,0.00,0,Wunderground v.1.15,2013-07-30 05:10:00,
2013-07-29 22:20:00,59.6,52.0,30.02,SW,236,0.0,0.0,76,0.00,,,0.00,0,Wunderground v.1.15,2013-07-30 05:20:00,
2013-07-29 22:30:00,59.3,51.7,30.02,NW,306,0.0,0.0,76,0.00,,,0.00,0,Wunderground v.1.15,2013-07-30 05:30:00,
2013-07-29 22:40:00,59.0,51.8,30.02,NNE,24,0.0,0.0,77,0.00,,,0.00,0,Wunderground v.1.15,2013-07-30 05:40:00,
2013-07-29 22:50:00,59.0,52.1,30.02,NE,49,0.0,0.0,78,0.00,,,0.00,0,Wunderground v.1.15,2013-07-30 05:50:00,
2013-07-29 23:00:00,59.0,52.1,30.01,NE,49,0.0,0.0,78,0.00,,,0.00,0,Wunderground v.1.15,2013-07-30 06:00:00,
2013-07-29 23:10:00,58.8,52.0,30.01,NE,49,0.0,0.0,78,0.00,,,0.00,0,Wunderground v.1.15,2013-07-30 06:10:00,
2013-07-29 23:20:00,58.7,51.9,30.01,NE,49,0.0,0.0,78,0.00,,,0.00,0,Wunderground v.1.15,2013-07-30 06:20:00,
2013-07-29 23:30:00,58.7,52.2,30.02,NE,49,0.0,0.0,79,0.00,,,0.00,0,Wunderground v.1.15,2013-07-30 06:30:00,
2013-07-29 23:40:00,58.6,52.1,30.02,WNW,296,0.0,0.0,79,0.00,,,0.00,0,Wunderground v.1.15,2013-07-30 06:40:00,
2013-07-29 23:50:00,58.5,52.0,30.02,WNW,284,0.0,0.0,79,0.00,,,0.00,0,Wunderground v.1.15,2013-07-30 06:50:00,